sensor_id;sensor_type;location;lat;lon;timestamp;pressure;altitude;pressure_sealevel;temperature
80581;BMP180;1474;51.460;7.150;2023-11-21T00:01:54;100039.00;;;15.90
80581;BMP180;1474;51.460;7.150;2023-11-21T00:04:20;100035.00;;;15.90
80581;BMP180;1474;51.460;7.150;2023-11-21T00:06:47;100049.00;;;15.90
80581;BMP180;1474;51.460;7.150;2023-11-21T00:09:15;100043.00;;;15.90
80581;BMP180;1474;51.460;7.150;2023-11-21T00:11:43;100052.00;;;15.90
80581;BMP180;1474;51.460;7.150;2023-11-21T00:14:11;100044.00;;;15.90
80581;BMP180;1474;51.460;7.150;2023-11-21T00:16:37;100031.00;;;15.90
80581;BMP180;1474;51.460;7.150;2023-11-21T00:19:02;100039.00;;;15.90
80581;BMP180;1474;51.460;7.150;2023-11-21T00:21:28;100040.00;;;15.90
80581;BMP180;1474;51.460;7.150;2023-11-21T00:23:54;100042.00;;;15.90
80581;BMP180;1474;51.460;7.150;2023-11-21T00:26:19;100041.00;;;15.90
80581;BMP180;1474;51.460;7.150;2023-11-21T00:28:45;100048.00;;;15.90
80581;BMP180;1474;51.460;7.150;2023-11-21T00:31:11;100051.00;;;15.90
80581;BMP180;1474;51.460;7.150;2023-11-21T00:33:37;100059.00;;;15.90
80581;BMP180;1474;51.460;7.150;2023-11-21T00:36:03;100060.00;;;15.90
80581;BMP180;1474;51.460;7.150;2023-11-21T00:38:28;100058.00;;;15.90
80581;BMP180;1474;51.460;7.150;2023-11-21T00:40:55;100055.00;;;15.90
80581;BMP180;1474;51.460;7.150;2023-11-21T00:43:24;100056.00;;;15.90
80581;BMP180;1474;51.460;7.150;2023-11-21T00:45:50;100060.00;;;15.90
80581;BMP180;1474;51.460;7.150;2023-11-21T00:48:17;100065.00;;;15.90
80581;BMP180;1474;51.460;7.150;2023-11-21T00:50:44;100050.00;;;15.90
80581;BMP180;1474;51.460;7.150;2023-11-21T00:53:10;100049.00;;;15.90
80581;BMP180;1474;51.460;7.150;2023-11-21T00:55:37;100054.00;;;15.90
80581;BMP180;1474;51.460;7.150;2023-11-21T00:58:05;100063.00;;;15.90
80581;BMP180;1474;51.460;7.150;2023-11-21T01:00:33;100060.00;;;15.90
80581;BMP180;1474;51.460;7.150;2023-11-21T01:02:59;100062.00;;;15.90
80581;BMP180;1474;51.460;7.150;2023-11-21T01:05:25;100050.00;;;15.90
80581;BMP180;1474;51.460;7.150;2023-11-21T01:07:52;100057.00;;;15.90
80581;BMP180;1474;51.460;7.150;2023-11-21T01:10:18;100050.00;;;15.90
80581;BMP180;1474;51.460;7.150;2023-11-21T01:12:44;100063.00;;;15.90
80581;BMP180;1474;51.460;7.150;2023-11-21T01:15:09;100067.00;;;15.90
80581;BMP180;1474;51.460;7.150;2023-11-21T01:17:38;100073.00;;;15.90
80581;BMP180;1474;51.460;7.150;2023-11-21T01:20:04;100068.00;;;15.90
80581;BMP180;1474;51.460;7.150;2023-11-21T01:22:36;100058.00;;;15.90
80581;BMP180;1474;51.460;7.150;2023-11-21T01:25:02;100077.00;;;15.90
80581;BMP180;1474;51.460;7.150;2023-11-21T01:27:30;100082.00;;;15.90
80581;BMP180;1474;51.460;7.150;2023-11-21T01:29:55;100083.00;;;15.90
80581;BMP180;1474;51.460;7.150;2023-11-21T01:32:21;100086.00;;;15.90
80581;BMP180;1474;51.460;7.150;2023-11-21T01:34:50;100087.00;;;15.90
80581;BMP180;1474;51.460;7.150;2023-11-21T01:37:16;100089.00;;;15.90
80581;BMP180;1474;51.460;7.150;2023-11-21T01:39:43;100079.00;;;15.90
80581;BMP180;1474;51.460;7.150;2023-11-21T01:42:10;100090.00;;;15.90
80581;BMP180;1474;51.460;7.150;2023-11-21T01:44:39;100087.00;;;15.90
80581;BMP180;1474;51.460;7.150;2023-11-21T01:47:06;100090.00;;;15.90
80581;BMP180;1474;51.460;7.150;2023-11-21T01:49:36;100087.00;;;15.90
80581;BMP180;1474;51.460;7.150;2023-11-21T01:52:03;100091.00;;;15.90
80581;BMP180;1474;51.460;7.150;2023-11-21T01:54:30;100091.00;;;15.90
80581;BMP180;1474;51.460;7.150;2023-11-21T01:56:58;100094.00;;;15.90
80581;BMP180;1474;51.460;7.150;2023-11-21T01:59:37;100081.00;;;15.90
80581;BMP180;1474;51.460;7.150;2023-11-21T02:02:07;100094.00;;;15.90
80581;BMP180;1474;51.460;7.150;2023-11-21T02:04:34;100090.00;;;15.90
80581;BMP180;1474;51.460;7.150;2023-11-21T02:07:00;100092.00;;;15.90
80581;BMP180;1474;51.460;7.150;2023-11-21T02:09:29;100093.00;;;15.90
80581;BMP180;1474;51.460;7.150;2023-11-21T02:11:56;100096.00;;;15.90
80581;BMP180;1474;51.460;7.150;2023-11-21T02:14:27;100109.00;;;15.90
80581;BMP180;1474;51.460;7.150;2023-11-21T02:16:54;100103.00;;;15.90
80581;BMP180;1474;51.460;7.150;2023-11-21T02:19:22;100112.00;;;15.90
80581;BMP180;1474;51.460;7.150;2023-11-21T02:21:57;100112.00;;;15.90
80581;BMP180;1474;51.460;7.150;2023-11-21T02:24:32;100109.00;;;15.90
80581;BMP180;1474;51.460;7.150;2023-11-21T02:26:58;100101.00;;;15.90
80581;BMP180;1474;51.460;7.150;2023-11-21T02:29:24;100114.00;;;15.90
80581;BMP180;1474;51.460;7.150;2023-11-21T02:31:55;100120.00;;;15.90
80581;BMP180;1474;51.460;7.150;2023-11-21T02:34:23;100122.00;;;15.90
80581;BMP180;1474;51.460;7.150;2023-11-21T02:36:50;100117.00;;;15.90
80581;BMP180;1474;51.460;7.150;2023-11-21T02:39:17;100115.00;;;15.90
80581;BMP180;1474;51.460;7.150;2023-11-21T02:41:44;100122.00;;;15.90
80581;BMP180;1474;51.460;7.150;2023-11-21T02:44:10;100115.00;;;15.90
80581;BMP180;1474;51.460;7.150;2023-11-21T02:46:37;100119.00;;;15.90
80581;BMP180;1474;51.460;7.150;2023-11-21T02:49:03;100131.00;;;15.90
80581;BMP180;1474;51.460;7.150;2023-11-21T02:51:32;100132.00;;;15.90
80581;BMP180;1474;51.460;7.150;2023-11-21T02:53:58;100134.00;;;15.90
80581;BMP180;1474;51.460;7.150;2023-11-21T02:56:28;100133.00;;;15.90
80581;BMP180;1474;51.460;7.150;2023-11-21T02:58:57;100133.00;;;15.90
80581;BMP180;1474;51.460;7.150;2023-11-21T03:01:23;100137.00;;;15.90
80581;BMP180;1474;51.460;7.150;2023-11-21T03:03:53;100140.00;;;15.90
80581;BMP180;1474;51.460;7.150;2023-11-21T03:06:20;100142.00;;;15.90
80581;BMP180;1474;51.460;7.150;2023-11-21T03:08:46;100150.00;;;15.90
80581;BMP180;1474;51.460;7.150;2023-11-21T03:11:13;100153.00;;;15.90
80581;BMP180;1474;51.460;7.150;2023-11-21T03:13:40;100147.00;;;15.90
80581;BMP180;1474;51.460;7.150;2023-11-21T03:16:09;100139.00;;;15.90
80581;BMP180;1474;51.460;7.150;2023-11-21T03:18:36;100152.00;;;15.90
80581;BMP180;1474;51.460;7.150;2023-11-21T03:21:04;100148.00;;;15.90
80581;BMP180;1474;51.460;7.150;2023-11-21T03:23:30;100138.00;;;15.90
80581;BMP180;1474;51.460;7.150;2023-11-21T03:25:56;100139.00;;;15.90
80581;BMP180;1474;51.460;7.150;2023-11-21T03:28:22;100139.00;;;15.90
80581;BMP180;1474;51.460;7.150;2023-11-21T03:30:49;100143.00;;;15.90
80581;BMP180;1474;51.460;7.150;2023-11-21T03:33:15;100149.00;;;15.90
80581;BMP180;1474;51.460;7.150;2023-11-21T03:35:40;100159.00;;;15.90
80581;BMP180;1474;51.460;7.150;2023-11-21T03:38:07;100169.00;;;15.90
80581;BMP180;1474;51.460;7.150;2023-11-21T03:40:35;100155.00;;;15.90
80581;BMP180;1474;51.460;7.150;2023-11-21T03:43:01;100167.00;;;15.90
80581;BMP180;1474;51.460;7.150;2023-11-21T03:45:26;100172.00;;;15.90
80581;BMP180;1474;51.460;7.150;2023-11-21T03:47:52;100181.00;;;15.90
80581;BMP180;1474;51.460;7.150;2023-11-21T03:50:18;100182.00;;;15.90
80581;BMP180;1474;51.460;7.150;2023-11-21T03:52:44;100181.00;;;15.90
80581;BMP180;1474;51.460;7.150;2023-11-21T03:55:10;100194.00;;;15.90
80581;BMP180;1474;51.460;7.150;2023-11-21T03:57:36;100185.00;;;15.90
80581;BMP180;1474;51.460;7.150;2023-11-21T04:00:03;100195.00;;;15.90
80581;BMP180;1474;51.460;7.150;2023-11-21T04:02:34;100206.00;;;15.90
80581;BMP180;1474;51.460;7.150;2023-11-21T04:05:00;100193.00;;;15.90
80581;BMP180;1474;51.460;7.150;2023-11-21T04:07:26;100199.00;;;15.90
80581;BMP180;1474;51.460;7.150;2023-11-21T04:09:52;100204.00;;;15.90
80581;BMP180;1474;51.460;7.150;2023-11-21T04:12:19;100199.00;;;15.90
80581;BMP180;1474;51.460;7.150;2023-11-21T04:14:45;100207.00;;;15.90
80581;BMP180;1474;51.460;7.150;2023-11-21T04:17:11;100189.00;;;15.90
80581;BMP180;1474;51.460;7.150;2023-11-21T04:19:36;100197.00;;;15.90
80581;BMP180;1474;51.460;7.150;2023-11-21T04:22:02;100190.00;;;15.90
80581;BMP180;1474;51.460;7.150;2023-11-21T04:24:29;100194.00;;;15.90
80581;BMP180;1474;51.460;7.150;2023-11-21T04:26:55;100205.00;;;15.90
80581;BMP180;1474;51.460;7.150;2023-11-21T04:29:21;100200.00;;;15.90
80581;BMP180;1474;51.460;7.150;2023-11-21T04:31:46;100202.00;;;15.90
80581;BMP180;1474;51.460;7.150;2023-11-21T04:34:14;100208.00;;;15.90
80581;BMP180;1474;51.460;7.150;2023-11-21T04:36:40;100199.00;;;15.90
80581;BMP180;1474;51.460;7.150;2023-11-21T04:39:06;100206.00;;;15.90
80581;BMP180;1474;51.460;7.150;2023-11-21T04:41:32;100207.00;;;15.90
80581;BMP180;1474;51.460;7.150;2023-11-21T04:43:58;100206.00;;;15.90
80581;BMP180;1474;51.460;7.150;2023-11-21T04:46:26;100206.00;;;15.90
80581;BMP180;1474;51.460;7.150;2023-11-21T04:48:52;100210.00;;;15.90
80581;BMP180;1474;51.460;7.150;2023-11-21T04:51:17;100209.00;;;15.90
80581;BMP180;1474;51.460;7.150;2023-11-21T04:53:43;100215.00;;;15.90
80581;BMP180;1474;51.460;7.150;2023-11-21T04:56:09;100224.00;;;15.90
80581;BMP180;1474;51.460;7.150;2023-11-21T04:58:35;100219.00;;;15.90
80581;BMP180;1474;51.460;7.150;2023-11-21T05:01:01;100221.00;;;15.90
80581;BMP180;1474;51.460;7.150;2023-11-21T05:03:27;100210.00;;;15.90
80581;BMP180;1474;51.460;7.150;2023-11-21T05:05:55;100220.00;;;15.90
80581;BMP180;1474;51.460;7.150;2023-11-21T05:08:21;100222.00;;;15.90
80581;BMP180;1474;51.460;7.150;2023-11-21T05:10:48;100230.00;;;15.90
80581;BMP180;1474;51.460;7.150;2023-11-21T05:13:14;100229.00;;;15.90
80581;BMP180;1474;51.460;7.150;2023-11-21T05:15:43;100229.00;;;15.90
80581;BMP180;1474;51.460;7.150;2023-11-21T05:18:09;100238.00;;;15.90
80581;BMP180;1474;51.460;7.150;2023-11-21T05:20:35;100236.00;;;15.90
80581;BMP180;1474;51.460;7.150;2023-11-21T05:23:01;100231.00;;;15.90
80581;BMP180;1474;51.460;7.150;2023-11-21T05:25:27;100231.00;;;15.90
80581;BMP180;1474;51.460;7.150;2023-11-21T05:27:53;100236.00;;;15.90
80581;BMP180;1474;51.460;7.150;2023-11-21T05:30:21;100244.00;;;15.90
80581;BMP180;1474;51.460;7.150;2023-11-21T05:32:46;100251.00;;;15.90
80581;BMP180;1474;51.460;7.150;2023-11-21T05:35:12;100255.00;;;15.90
80581;BMP180;1474;51.460;7.150;2023-11-21T05:37:42;100259.00;;;15.90
80581;BMP180;1474;51.460;7.150;2023-11-21T05:40:09;100261.00;;;15.90
80581;BMP180;1474;51.460;7.150;2023-11-21T05:42:36;100267.00;;;15.90
80581;BMP180;1474;51.460;7.150;2023-11-21T05:45:02;100265.00;;;15.90
80581;BMP180;1474;51.460;7.150;2023-11-21T05:47:44;100268.00;;;15.90
80581;BMP180;1474;51.460;7.150;2023-11-21T05:50:14;100271.00;;;15.90
80581;BMP180;1474;51.460;7.150;2023-11-21T05:52:43;100278.00;;;15.90
80581;BMP180;1474;51.460;7.150;2023-11-21T05:55:09;100285.00;;;15.90
80581;BMP180;1474;51.460;7.150;2023-11-21T05:57:36;100288.00;;;15.90
80581;BMP180;1474;51.460;7.150;2023-11-21T06:00:13;100294.00;;;15.90
80581;BMP180;1474;51.460;7.150;2023-11-21T06:02:49;100292.00;;;15.90
80581;BMP180;1474;51.460;7.150;2023-11-21T06:05:18;100297.00;;;15.90
80581;BMP180;1474;51.460;7.150;2023-11-21T06:07:45;100296.00;;;15.90
80581;BMP180;1474;51.460;7.150;2023-11-21T06:10:11;100302.00;;;15.90
80581;BMP180;1474;51.460;7.150;2023-11-21T06:12:41;100304.00;;;15.90
80581;BMP180;1474;51.460;7.150;2023-11-21T06:15:10;100311.00;;;15.90
80581;BMP180;1474;51.460;7.150;2023-11-21T06:17:39;100321.00;;;15.90
80581;BMP180;1474;51.460;7.150;2023-11-21T06:20:09;100319.00;;;15.90
80581;BMP180;1474;51.460;7.150;2023-11-21T06:22:43;100314.00;;;15.80
80581;BMP180;1474;51.460;7.150;2023-11-21T06:25:10;100330.00;;;15.90
80581;BMP180;1474;51.460;7.150;2023-11-21T06:27:42;100335.00;;;15.90
80581;BMP180;1474;51.460;7.150;2023-11-21T06:30:09;100345.00;;;15.90
80581;BMP180;1474;51.460;7.150;2023-11-21T06:32:36;100344.00;;;15.90
80581;BMP180;1474;51.460;7.150;2023-11-21T06:35:03;100342.00;;;15.90
80581;BMP180;1474;51.460;7.150;2023-11-21T06:37:31;100352.00;;;15.90
80581;BMP180;1474;51.460;7.150;2023-11-21T06:39:58;100358.00;;;15.90
80581;BMP180;1474;51.460;7.150;2023-11-21T06:42:25;100352.00;;;15.90
80581;BMP180;1474;51.460;7.150;2023-11-21T06:44:51;100364.00;;;15.90
80581;BMP180;1474;51.460;7.150;2023-11-21T06:47:18;100361.00;;;15.90
80581;BMP180;1474;51.460;7.150;2023-11-21T06:49:46;100359.00;;;15.90
80581;BMP180;1474;51.460;7.150;2023-11-21T06:52:13;100358.00;;;15.90
80581;BMP180;1474;51.460;7.150;2023-11-21T06:54:39;100363.00;;;15.90
80581;BMP180;1474;51.460;7.150;2023-11-21T06:57:05;100363.00;;;15.80
80581;BMP180;1474;51.460;7.150;2023-11-21T06:59:31;100375.00;;;15.80
80581;BMP180;1474;51.460;7.150;2023-11-21T07:01:57;100375.00;;;15.90
80581;BMP180;1474;51.460;7.150;2023-11-21T07:04:23;100377.00;;;15.90
80581;BMP180;1474;51.460;7.150;2023-11-21T07:06:52;100378.00;;;15.90
80581;BMP180;1474;51.460;7.150;2023-11-21T07:09:18;100387.00;;;15.90
80581;BMP180;1474;51.460;7.150;2023-11-21T07:11:48;100389.00;;;15.90
80581;BMP180;1474;51.460;7.150;2023-11-21T07:14:15;100389.00;;;15.90
80581;BMP180;1474;51.460;7.150;2023-11-21T07:16:41;100394.00;;;15.90
80581;BMP180;1474;51.460;7.150;2023-11-21T07:19:07;100393.00;;;15.90
80581;BMP180;1474;51.460;7.150;2023-11-21T07:21:35;100398.00;;;15.90
80581;BMP180;1474;51.460;7.150;2023-11-21T07:24:02;100398.00;;;15.90
80581;BMP180;1474;51.460;7.150;2023-11-21T07:26:30;100404.00;;;15.90
80581;BMP180;1474;51.460;7.150;2023-11-21T07:28:56;100403.00;;;15.90
80581;BMP180;1474;51.460;7.150;2023-11-21T07:31:22;100401.00;;;15.90
80581;BMP180;1474;51.460;7.150;2023-11-21T07:33:49;100409.00;;;15.90
80581;BMP180;1474;51.460;7.150;2023-11-21T07:36:17;100407.00;;;15.90
80581;BMP180;1474;51.460;7.150;2023-11-21T07:38:50;100410.00;;;15.90
80581;BMP180;1474;51.460;7.150;2023-11-21T07:41:17;100411.00;;;15.90
80581;BMP180;1474;51.460;7.150;2023-11-21T07:43:46;100420.00;;;15.90
80581;BMP180;1474;51.460;7.150;2023-11-21T07:46:13;100414.00;;;15.90
80581;BMP180;1474;51.460;7.150;2023-11-21T07:48:40;100413.00;;;15.90
80581;BMP180;1474;51.460;7.150;2023-11-21T07:51:08;100415.00;;;15.90
80581;BMP180;1474;51.460;7.150;2023-11-21T07:53:35;100413.00;;;15.90
80581;BMP180;1474;51.460;7.150;2023-11-21T07:56:08;100420.00;;;15.90
80581;BMP180;1474;51.460;7.150;2023-11-21T07:58:35;100416.00;;;15.90
80581;BMP180;1474;51.460;7.150;2023-11-21T08:01:05;100418.00;;;15.90
80581;BMP180;1474;51.460;7.150;2023-11-21T08:03:31;100422.00;;;15.90
80581;BMP180;1474;51.460;7.150;2023-11-21T08:05:58;100430.00;;;15.90
80581;BMP180;1474;51.460;7.150;2023-11-21T08:08:24;100448.00;;;15.90
80581;BMP180;1474;51.460;7.150;2023-11-21T08:10:51;100437.00;;;15.90
80581;BMP180;1474;51.460;7.150;2023-11-21T08:13:27;100451.00;;;15.90
80581;BMP180;1474;51.460;7.150;2023-11-21T08:15:58;100468.00;;;15.90
80581;BMP180;1474;51.460;7.150;2023-11-21T08:18:31;100473.00;;;15.90
80581;BMP180;1474;51.460;7.150;2023-11-21T08:20:57;100477.00;;;15.90
80581;BMP180;1474;51.460;7.150;2023-11-21T08:23:23;100485.00;;;15.90
80581;BMP180;1474;51.460;7.150;2023-11-21T08:25:53;100485.00;;;15.90
80581;BMP180;1474;51.460;7.150;2023-11-21T08:28:19;100497.00;;;15.90
80581;BMP180;1474;51.460;7.150;2023-11-21T08:30:52;100504.00;;;15.90
80581;BMP180;1474;51.460;7.150;2023-11-21T08:33:18;100508.00;;;15.90
80581;BMP180;1474;51.460;7.150;2023-11-21T08:35:44;100508.00;;;15.90
80581;BMP180;1474;51.460;7.150;2023-11-21T08:38:12;100511.00;;;15.90
80581;BMP180;1474;51.460;7.150;2023-11-21T08:40:38;100519.00;;;15.90
80581;BMP180;1474;51.460;7.150;2023-11-21T08:43:04;100525.00;;;15.90
80581;BMP180;1474;51.460;7.150;2023-11-21T08:45:33;100526.00;;;15.90
80581;BMP180;1474;51.460;7.150;2023-11-21T08:48:00;100522.00;;;15.90
80581;BMP180;1474;51.460;7.150;2023-11-21T08:50:26;100521.00;;;15.90
80581;BMP180;1474;51.460;7.150;2023-11-21T08:52:52;100529.00;;;15.90
80581;BMP180;1474;51.460;7.150;2023-11-21T08:55:17;100523.00;;;15.90
80581;BMP180;1474;51.460;7.150;2023-11-21T08:57:45;100524.00;;;15.90
80581;BMP180;1474;51.460;7.150;2023-11-21T09:00:14;100528.00;;;15.90
80581;BMP180;1474;51.460;7.150;2023-11-21T09:02:43;100525.00;;;15.90
80581;BMP180;1474;51.460;7.150;2023-11-21T09:05:10;100530.00;;;15.90
80581;BMP180;1474;51.460;7.150;2023-11-21T09:07:38;100524.00;;;15.90
80581;BMP180;1474;51.460;7.150;2023-11-21T09:10:05;100528.00;;;15.90
80581;BMP180;1474;51.460;7.150;2023-11-21T09:12:34;100537.00;;;15.90
80581;BMP180;1474;51.460;7.150;2023-11-21T09:15:05;100546.00;;;16.00
80581;BMP180;1474;51.460;7.150;2023-11-21T09:17:33;100551.00;;;16.10
80581;BMP180;1474;51.460;7.150;2023-11-21T09:19:59;100556.00;;;16.10
80581;BMP180;1474;51.460;7.150;2023-11-21T09:22:25;100551.00;;;16.10
80581;BMP180;1474;51.460;7.150;2023-11-21T09:24:51;100547.00;;;16.10
80581;BMP180;1474;51.460;7.150;2023-11-21T09:27:18;100553.00;;;16.20
80581;BMP180;1474;51.460;7.150;2023-11-21T09:29:44;100556.00;;;16.20
80581;BMP180;1474;51.460;7.150;2023-11-21T09:32:10;100562.00;;;16.30
80581;BMP180;1474;51.460;7.150;2023-11-21T09:34:38;100561.00;;;16.30
80581;BMP180;1474;51.460;7.150;2023-11-21T09:37:07;100572.00;;;16.30
80581;BMP180;1474;51.460;7.150;2023-11-21T09:39:34;100576.00;;;16.30
80581;BMP180;1474;51.460;7.150;2023-11-21T09:42:13;100574.00;;;16.30
80581;BMP180;1474;51.460;7.150;2023-11-21T09:45:10;100578.00;;;16.30
80581;BMP180;1474;51.460;7.150;2023-11-21T09:47:39;100586.00;;;16.30
80581;BMP180;1474;51.460;7.150;2023-11-21T09:50:05;100582.00;;;16.40
80581;BMP180;1474;51.460;7.150;2023-11-21T09:55:37;100586.00;;;16.40
80581;BMP180;1474;51.460;7.150;2023-11-21T09:58:04;100583.00;;;16.40
80581;BMP180;1474;51.460;7.150;2023-11-21T10:00:33;100577.00;;;16.40
80581;BMP180;1474;51.460;7.150;2023-11-21T10:03:00;100589.00;;;16.50
80581;BMP180;1474;51.460;7.150;2023-11-21T10:05:26;100590.00;;;16.50
80581;BMP180;1474;51.460;7.150;2023-11-21T10:07:53;100592.00;;;16.50
80581;BMP180;1474;51.460;7.150;2023-11-21T10:10:20;100590.00;;;16.50
80581;BMP180;1474;51.460;7.150;2023-11-21T10:12:56;100602.00;;;16.60
80581;BMP180;1474;51.460;7.150;2023-11-21T10:15:23;100593.00;;;16.60
80581;BMP180;1474;51.460;7.150;2023-11-21T10:17:53;100591.00;;;16.60
80581;BMP180;1474;51.460;7.150;2023-11-21T10:20:20;100601.00;;;16.60
80581;BMP180;1474;51.460;7.150;2023-11-21T10:22:47;100593.00;;;16.70
80581;BMP180;1474;51.460;7.150;2023-11-21T10:25:13;100600.00;;;16.70
80581;BMP180;1474;51.460;7.150;2023-11-21T10:27:41;100600.00;;;16.70
80581;BMP180;1474;51.460;7.150;2023-11-21T10:30:08;100595.00;;;16.80
80581;BMP180;1474;51.460;7.150;2023-11-21T10:32:38;100592.00;;;16.80
80581;BMP180;1474;51.460;7.150;2023-11-21T10:35:07;100595.00;;;16.80
80581;BMP180;1474;51.460;7.150;2023-11-21T10:37:39;100594.00;;;16.70
80581;BMP180;1474;51.460;7.150;2023-11-21T10:40:10;100598.00;;;16.60
80581;BMP180;1474;51.460;7.150;2023-11-21T10:42:38;100610.00;;;16.70
80581;BMP180;1474;51.460;7.150;2023-11-21T10:45:06;100611.00;;;16.70
80581;BMP180;1474;51.460;7.150;2023-11-21T10:47:41;100622.00;;;16.60
80581;BMP180;1474;51.460;7.150;2023-11-21T10:50:07;100626.00;;;16.50
80581;BMP180;1474;51.460;7.150;2023-11-21T10:52:45;100628.00;;;16.50
80581;BMP180;1474;51.460;7.150;2023-11-21T10:55:20;100620.00;;;16.60
80581;BMP180;1474;51.460;7.150;2023-11-21T10:57:53;100626.00;;;16.60
80581;BMP180;1474;51.460;7.150;2023-11-21T11:00:20;100629.00;;;16.60
80581;BMP180;1474;51.460;7.150;2023-11-21T11:02:52;100630.00;;;16.60
80581;BMP180;1474;51.460;7.150;2023-11-21T11:05:21;100624.00;;;16.60
80581;BMP180;1474;51.460;7.150;2023-11-21T11:08:03;100635.00;;;16.60
80581;BMP180;1474;51.460;7.150;2023-11-21T11:10:29;100632.00;;;16.50
80581;BMP180;1474;51.460;7.150;2023-11-21T11:12:57;100638.00;;;16.50
80581;BMP180;1474;51.460;7.150;2023-11-21T11:15:26;100640.00;;;16.40
80581;BMP180;1474;51.460;7.150;2023-11-21T11:17:53;100641.00;;;16.50
80581;BMP180;1474;51.460;7.150;2023-11-21T11:20:30;100643.00;;;16.40
80581;BMP180;1474;51.460;7.150;2023-11-21T11:26:17;100640.00;;;16.40
80581;BMP180;1474;51.460;7.150;2023-11-21T11:32:20;100644.00;;;16.40
80581;BMP180;1474;51.460;7.150;2023-11-21T11:35:01;100645.00;;;16.40
80581;BMP180;1474;51.460;7.150;2023-11-21T11:37:29;100637.00;;;16.40
80581;BMP180;1474;51.460;7.150;2023-11-21T11:39:56;100641.00;;;16.40
80581;BMP180;1474;51.460;7.150;2023-11-21T11:42:22;100646.00;;;16.40
80581;BMP180;1474;51.460;7.150;2023-11-21T11:44:50;100643.00;;;16.40
80581;BMP180;1474;51.460;7.150;2023-11-21T11:47:27;100644.00;;;16.40
80581;BMP180;1474;51.460;7.150;2023-11-21T11:50:09;100641.00;;;16.30
80581;BMP180;1474;51.460;7.150;2023-11-21T11:52:50;100641.00;;;16.30
80581;BMP180;1474;51.460;7.150;2023-11-21T11:55:19;100647.00;;;16.30
80581;BMP180;1474;51.460;7.150;2023-11-21T11:57:56;100649.00;;;16.30
80581;BMP180;1474;51.460;7.150;2023-11-21T12:02:59;100655.00;;;16.30
80581;BMP180;1474;51.460;7.150;2023-11-21T12:05:32;100650.00;;;16.30
80581;BMP180;1474;51.460;7.150;2023-11-21T12:08:06;100654.00;;;16.30
80581;BMP180;1474;51.460;7.150;2023-11-21T12:10:38;100661.00;;;16.30
80581;BMP180;1474;51.460;7.150;2023-11-21T12:13:09;100671.00;;;16.30
80581;BMP180;1474;51.460;7.150;2023-11-21T12:15:38;100673.00;;;16.30
80581;BMP180;1474;51.460;7.150;2023-11-21T12:18:04;100678.00;;;16.30
80581;BMP180;1474;51.460;7.150;2023-11-21T12:20:32;100683.00;;;16.30
80581;BMP180;1474;51.460;7.150;2023-11-21T12:23:05;100672.00;;;16.20
80581;BMP180;1474;51.460;7.150;2023-11-21T12:25:31;100679.00;;;16.20
80581;BMP180;1474;51.460;7.150;2023-11-21T12:28:00;100680.00;;;16.20
80581;BMP180;1474;51.460;7.150;2023-11-21T12:30:29;100680.00;;;16.20
80581;BMP180;1474;51.460;7.150;2023-11-21T12:32:58;100687.00;;;16.20
80581;BMP180;1474;51.460;7.150;2023-11-21T12:35:30;100685.00;;;16.20
80581;BMP180;1474;51.460;7.150;2023-11-21T12:37:57;100691.00;;;16.20
80581;BMP180;1474;51.460;7.150;2023-11-21T12:40:23;100690.00;;;16.20
80581;BMP180;1474;51.460;7.150;2023-11-21T12:42:52;100686.00;;;16.20
80581;BMP180;1474;51.460;7.150;2023-11-21T12:45:23;100694.00;;;16.20
80581;BMP180;1474;51.460;7.150;2023-11-21T12:47:55;100699.00;;;16.20
80581;BMP180;1474;51.460;7.150;2023-11-21T12:50:23;100699.00;;;16.20
80581;BMP180;1474;51.460;7.150;2023-11-21T12:52:58;100706.00;;;16.20
80581;BMP180;1474;51.460;7.150;2023-11-21T12:55:24;100706.00;;;16.20
80581;BMP180;1474;51.460;7.150;2023-11-21T12:57:55;100712.00;;;16.20
80581;BMP180;1474;51.460;7.150;2023-11-21T13:00:46;100712.00;;;16.20
80581;BMP180;1474;51.460;7.150;2023-11-21T13:03:14;100712.00;;;16.20
80581;BMP180;1474;51.460;7.150;2023-11-21T13:05:53;100717.00;;;16.20
80581;BMP180;1474;51.460;7.150;2023-11-21T13:08:24;100710.00;;;16.20
80581;BMP180;1474;51.460;7.150;2023-11-21T13:10:56;100718.00;;;16.20
80581;BMP180;1474;51.460;7.150;2023-11-21T13:13:23;100722.00;;;16.20
80581;BMP180;1474;51.460;7.150;2023-11-21T13:16:01;100728.00;;;16.10
80581;BMP180;1474;51.460;7.150;2023-11-21T13:18:31;100731.00;;;16.10
80581;BMP180;1474;51.460;7.150;2023-11-21T13:21:01;100737.00;;;16.10
80581;BMP180;1474;51.460;7.150;2023-11-21T13:23:28;100739.00;;;16.10
80581;BMP180;1474;51.460;7.150;2023-11-21T13:25:55;100744.00;;;16.10
80581;BMP180;1474;51.460;7.150;2023-11-21T13:28:21;100752.00;;;16.10
80581;BMP180;1474;51.460;7.150;2023-11-21T13:30:48;100752.00;;;16.10
80581;BMP180;1474;51.460;7.150;2023-11-21T13:33:17;100757.00;;;16.10
80581;BMP180;1474;51.460;7.150;2023-11-21T13:35:47;100758.00;;;16.10
80581;BMP180;1474;51.460;7.150;2023-11-21T13:38:17;100762.00;;;16.10
80581;BMP180;1474;51.460;7.150;2023-11-21T13:40:52;100766.00;;;16.10
80581;BMP180;1474;51.460;7.150;2023-11-21T13:43:22;100767.00;;;16.10
80581;BMP180;1474;51.460;7.150;2023-11-21T13:45:50;100766.00;;;16.10
80581;BMP180;1474;51.460;7.150;2023-11-21T13:48:24;100771.00;;;16.10
80581;BMP180;1474;51.460;7.150;2023-11-21T13:51:22;100765.00;;;16.10
80581;BMP180;1474;51.460;7.150;2023-11-21T13:53:57;100771.00;;;16.10
80581;BMP180;1474;51.460;7.150;2023-11-21T13:56:23;100766.00;;;16.10
80581;BMP180;1474;51.460;7.150;2023-11-21T13:58:53;100765.00;;;16.10
80581;BMP180;1474;51.460;7.150;2023-11-21T14:01:21;100771.00;;;16.30
80581;BMP180;1474;51.460;7.150;2023-11-21T14:04:03;100763.00;;;16.50
80581;BMP180;1474;51.460;7.150;2023-11-21T14:06:43;100769.00;;;16.70
80581;BMP180;1474;51.460;7.150;2023-11-21T14:09:24;100777.00;;;16.90
80581;BMP180;1474;51.460;7.150;2023-11-21T14:11:59;100782.00;;;17.00
80581;BMP180;1474;51.460;7.150;2023-11-21T14:14:27;100793.00;;;17.10
80581;BMP180;1474;51.460;7.150;2023-11-21T14:16:56;100785.00;;;17.20
80581;BMP180;1474;51.460;7.150;2023-11-21T14:19:23;100790.00;;;17.40
80581;BMP180;1474;51.460;7.150;2023-11-21T14:21:55;100790.00;;;17.50
80581;BMP180;1474;51.460;7.150;2023-11-21T14:24:21;100796.00;;;17.60
80581;BMP180;1474;51.460;7.150;2023-11-21T14:26:49;100799.00;;;17.70
80581;BMP180;1474;51.460;7.150;2023-11-21T14:29:19;100807.00;;;17.80